North Pickens Airport (FAA LID: 3M8) is a county-owned public-use airport in Pickens County, Alabama, United States.
UNICOM: None
CTAF: 122.9 MHz
ATIS: None
RADAR SERVICE: Approach / Departure
COLUMBUS APPROACH/DEPARTURE: 135.6 MHz APCH/P DEP/P
Runway 1/19
Dimensions: 5144 x 80 ft. / 1568 x 24 m
Surface: asphalt, in good condition
Runway edge lights: medium intensity
Nearest
TUSCALOOSA, AL
Metar
KTCL 260053Z 35003KT 10SM CLR 23/18 A3018 RMK AO2 SLP216 T02280178

00:53 UTC

Wind: 350° 3kt

Visibility: 10 SM

Sky:

Temp: 23 deg C / 73.4 deg F

Dewpoint: 18 deg C / 64.4 deg F

Pressure: 30.18 inHg

TAF
KTCL 252336Z 2600/2624 02005KT P6SM BKN150 OVC250 FM260400 00000KT P6SM SCT250 FM261500 02009KT P6SM SCT250